createdAt,value
2023-02-09T00:00:02.243Z,15.70
2023-02-09T00:00:23.602Z,15.70
2023-02-09T00:00:45.123Z,15.80
2023-02-09T00:01:06.294Z,16.10
2023-02-09T00:01:27.367Z,15.60
2023-02-09T00:01:48.653Z,15.40
2023-02-09T00:02:09.735Z,15.20
2023-02-09T00:02:30.955Z,14.70
2023-02-09T00:02:52.002Z,14.60
2023-02-09T00:03:13.094Z,15.00
2023-02-09T00:03:34.201Z,15.00
2023-02-09T00:03:55.277Z,15.10
2023-02-09T00:04:16.299Z,14.70
2023-02-09T00:04:37.360Z,14.90
2023-02-09T00:04:58.438Z,15.60
2023-02-09T00:05:19.483Z,16.00
2023-02-09T00:05:40.582Z,15.00
2023-02-09T00:06:01.638Z,14.90
2023-02-09T00:06:22.708Z,15.10
2023-02-09T00:06:43.772Z,15.10
2023-02-09T00:07:04.847Z,15.10
2023-02-09T00:07:25.884Z,14.60
2023-02-09T00:07:46.960Z,15.50
2023-02-09T00:08:08.058Z,15.00
2023-02-09T00:08:29.105Z,15.50
2023-02-09T00:08:50.202Z,15.30
2023-02-09T00:09:11.239Z,14.60
2023-02-09T00:09:32.309Z,14.90
2023-02-09T00:09:53.368Z,15.30
2023-02-09T00:10:14.420Z,15.60
2023-02-09T00:10:35.571Z,14.70
2023-02-09T00:10:56.589Z,16.00
2023-02-09T00:11:17.668Z,15.40
2023-02-09T00:11:38.733Z,14.90
2023-02-09T00:11:59.807Z,14.70
2023-02-09T00:12:21.030Z,14.50
2023-02-09T00:12:42.096Z,16.50
2023-02-09T00:13:03.137Z,15.60
2023-02-09T00:13:24.188Z,14.90
2023-02-09T00:13:45.280Z,14.50
2023-02-09T00:14:06.309Z,13.90
2023-02-09T00:14:27.386Z,14.10
2023-02-09T00:14:48.450Z,14.60
2023-02-09T00:15:09.508Z,15.00
2023-02-09T00:15:30.563Z,14.40
2023-02-09T00:15:51.635Z,13.70
2023-02-09T00:16:12.754Z,14.40
2023-02-09T00:16:33.810Z,14.40
2023-02-09T00:16:54.938Z,14.40
2023-02-09T00:17:16.015Z,14.20
2023-02-09T00:17:37.101Z,13.80
2023-02-09T00:17:58.229Z,14.50
2023-02-09T00:18:19.255Z,14.90
2023-02-09T00:18:40.343Z,14.40
2023-02-09T00:19:01.400Z,14.50
2023-02-09T00:19:22.450Z,14.20
2023-02-09T00:19:43.526Z,14.40
2023-02-09T00:20:04.626Z,13.70
2023-02-09T00:20:25.661Z,14.30
2023-02-09T00:20:47.015Z,15.00
2023-02-09T00:21:08.157Z,14.20
2023-02-09T00:21:29.227Z,15.00
2023-02-09T00:21:50.306Z,14.20
2023-02-09T00:22:11.357Z,14.00
2023-02-09T00:22:32.413Z,14.30
2023-02-09T00:22:53.500Z,13.80
2023-02-09T00:23:14.586Z,14.30
2023-02-09T00:23:35.641Z,15.00
2023-02-09T00:23:56.701Z,14.70
2023-02-09T00:24:17.773Z,14.80
2023-02-09T00:24:38.848Z,14.50
2023-02-09T00:24:59.891Z,14.10
2023-02-09T00:25:20.987Z,14.40
2023-02-09T00:25:42.022Z,15.50
2023-02-09T00:26:03.098Z,15.00
2023-02-09T00:26:24.159Z,15.20
2023-02-09T00:26:45.248Z,14.60
2023-02-09T00:27:06.289Z,14.00
2023-02-09T00:27:27.348Z,14.60
2023-02-09T00:27:48.413Z,15.50
2023-02-09T00:28:09.706Z,15.20
2023-02-09T00:28:30.876Z,15.30
2023-02-09T00:28:51.921Z,15.40
2023-02-09T00:29:13.009Z,14.10
2023-02-09T00:29:34.081Z,14.80
2023-02-09T00:29:55.153Z,15.40
2023-02-09T00:30:16.283Z,14.90
2023-02-09T00:30:37.331Z,14.60
2023-02-09T00:30:58.456Z,14.60
2023-02-09T00:31:19.674Z,14.70
2023-02-09T00:31:40.933Z,15.00
2023-02-09T00:32:02.092Z,15.20
2023-02-09T00:32:23.165Z,14.30
2023-02-09T00:32:44.211Z,14.90
2023-02-09T00:33:05.354Z,14.50
2023-02-09T00:33:26.392Z,14.20
2023-02-09T00:33:47.465Z,14.50
2023-02-09T00:34:08.520Z,14.50
2023-02-09T00:34:29.575Z,14.30
2023-02-09T00:34:50.640Z,14.00
2023-02-09T00:35:11.707Z,14.00
2023-02-09T00:35:32.765Z,13.50
2023-02-09T00:35:53.834Z,13.30
2023-02-09T00:36:14.902Z,13.50
2023-02-09T00:36:35.972Z,13.30
2023-02-09T00:36:57.036Z,14.40
2023-02-09T00:37:18.129Z,14.70
2023-02-09T00:37:39.159Z,14.50
2023-02-09T00:38:00.234Z,13.70
2023-02-09T00:38:21.313Z,13.40
2023-02-09T00:38:42.372Z,13.10
2023-02-09T00:39:03.482Z,13.50
2023-02-09T00:39:24.518Z,13.20
2023-02-09T00:39:45.577Z,13.30
2023-02-09T00:40:06.685Z,13.80
2023-02-09T00:40:27.727Z,13.70
2023-02-09T00:40:49.071Z,14.60
2023-02-09T00:41:10.132Z,13.20
2023-02-09T00:41:31.231Z,12.50
2023-02-09T00:41:52.265Z,12.90
2023-02-09T00:42:13.320Z,12.80
2023-02-09T00:42:34.384Z,13.70
2023-02-09T00:42:55.482Z,14.80
2023-02-09T00:43:16.553Z,14.10
2023-02-09T00:43:37.605Z,13.60
2023-02-09T00:43:58.700Z,14.20
2023-02-09T00:44:19.753Z,13.20
2023-02-09T00:44:40.824Z,13.50
2023-02-09T00:45:01.940Z,13.00
2023-02-09T00:45:22.966Z,13.20
2023-02-09T00:45:44.087Z,13.00
2023-02-09T00:46:05.305Z,13.00
2023-02-09T00:46:26.352Z,13.40
2023-02-09T00:46:47.463Z,13.50
2023-02-09T00:47:08.501Z,13.20
2023-02-09T00:47:29.556Z,12.90
2023-02-09T00:47:50.618Z,12.80
2023-02-09T00:48:11.670Z,13.40
2023-02-09T00:48:32.760Z,13.70
2023-02-09T00:48:53.823Z,12.20
2023-02-09T00:49:14.911Z,12.90
2023-02-09T00:49:35.989Z,12.90
2023-02-09T00:49:57.027Z,13.30
2023-02-09T00:50:18.113Z,13.30
2023-02-09T00:50:39.170Z,12.90
2023-02-09T00:51:00.215Z,12.50
2023-02-09T00:51:21.282Z,13.00
2023-02-09T00:51:42.362Z,13.00
2023-02-09T00:52:03.406Z,12.90
2023-02-09T00:52:24.497Z,12.80
2023-02-09T00:52:45.545Z,13.00
2023-02-09T00:53:06.637Z,13.40
2023-02-09T00:53:27.699Z,13.70
2023-02-09T00:53:48.760Z,12.60
2023-02-09T00:54:09.808Z,12.50
2023-02-09T00:54:30.891Z,12.90
2023-02-09T00:54:51.962Z,13.00
2023-02-09T00:55:13.045Z,13.90
2023-02-09T00:55:34.112Z,13.10
2023-02-09T00:55:55.159Z,12.70
2023-02-09T00:56:16.211Z,13.30
2023-02-09T00:56:37.293Z,14.10
2023-02-09T00:56:58.330Z,13.90
2023-02-09T00:57:19.399Z,13.90
2023-02-09T00:57:40.455Z,13.30
2023-02-09T00:58:01.584Z,13.60
2023-02-09T00:58:22.681Z,13.40
2023-02-09T00:58:43.709Z,13.20
2023-02-09T00:59:04.771Z,13.80
2023-02-09T00:59:25.828Z,13.70
2023-02-09T00:59:47.145Z,13.50
2023-02-09T01:00:08.170Z,13.60
2023-02-09T01:00:29.379Z,13.60
2023-02-09T01:00:50.514Z,13.00
2023-02-09T01:01:11.576Z,13.30
2023-02-09T01:01:32.733Z,12.60
2023-02-09T01:01:53.791Z,13.50
2023-02-09T01:02:14.845Z,12.90
2023-02-09T01:02:35.904Z,13.50
2023-02-09T01:02:56.970Z,14.20
2023-02-09T01:03:18.036Z,14.20
2023-02-09T01:03:39.074Z,14.30
2023-02-09T01:04:00.146Z,13.70
2023-02-09T01:04:21.258Z,13.10
2023-02-09T01:04:42.362Z,13.40
2023-02-09T01:05:03.490Z,12.80
2023-02-09T01:05:24.533Z,13.50
2023-02-09T01:05:45.625Z,12.40
2023-02-09T01:06:06.683Z,13.10
2023-02-09T01:06:27.739Z,12.90
2023-02-09T01:06:48.805Z,13.10
2023-02-09T01:07:09.858Z,13.00
2023-02-09T01:07:30.925Z,13.50
2023-02-09T01:07:51.976Z,13.10
2023-02-09T01:08:13.037Z,13.00
2023-02-09T01:08:34.131Z,12.80
2023-02-09T01:08:55.161Z,13.10
2023-02-09T01:09:16.252Z,13.20
2023-02-09T01:09:37.328Z,13.10
2023-02-09T01:09:58.363Z,13.60
2023-02-09T01:10:19.457Z,13.40
2023-02-09T01:10:40.512Z,13.60
2023-02-09T01:11:01.604Z,14.40
2023-02-09T01:11:22.653Z,14.60
2023-02-09T01:11:43.724Z,14.10
2023-02-09T01:12:04.804Z,13.80
2023-02-09T01:12:25.846Z,13.40
2023-02-09T01:12:46.906Z,13.90
2023-02-09T01:13:07.968Z,13.10
2023-02-09T01:13:29.055Z,13.20
2023-02-09T01:13:50.081Z,13.50
2023-02-09T01:14:11.150Z,14.20
2023-02-09T01:14:32.207Z,14.30
2023-02-09T01:14:53.266Z,15.30
2023-02-09T01:15:14.321Z,13.70
2023-02-09T01:15:35.571Z,14.50
2023-02-09T01:15:56.690Z,14.90
2023-02-09T01:16:17.795Z,13.90
2023-02-09T01:16:38.978Z,13.00
2023-02-09T01:17:00.157Z,12.90
2023-02-09T01:17:21.246Z,13.40
2023-02-09T01:17:42.298Z,13.50
2023-02-09T01:18:03.386Z,13.70
2023-02-09T01:18:24.443Z,13.60
2023-02-09T01:18:45.504Z,13.40
2023-02-09T01:19:06.567Z,13.50
2023-02-09T01:19:27.616Z,12.90
2023-02-09T01:19:48.689Z,12.60
2023-02-09T01:20:09.750Z,13.00
2023-02-09T01:20:30.818Z,13.20
2023-02-09T01:20:51.909Z,12.80
2023-02-09T01:21:12.983Z,12.90
2023-02-09T01:21:34.036Z,13.10
2023-02-09T01:21:55.111Z,12.80
2023-02-09T01:22:16.163Z,12.40
2023-02-09T01:22:37.245Z,12.70
2023-02-09T01:22:58.289Z,13.20
2023-02-09T01:23:19.359Z,12.90
2023-02-09T01:23:40.434Z,13.30
2023-02-09T01:24:01.488Z,13.70
2023-02-09T01:24:22.554Z,12.70
2023-02-09T01:24:43.609Z,12.60
2023-02-09T01:25:04.693Z,13.00
2023-02-09T01:25:25.749Z,12.70
2023-02-09T01:25:46.816Z,12.60
2023-02-09T01:26:08.055Z,12.80
2023-02-09T01:26:29.118Z,12.60
2023-02-09T01:26:50.185Z,12.70
2023-02-09T01:27:11.224Z,12.50
2023-02-09T01:27:32.275Z,13.10
2023-02-09T01:27:53.424Z,13.30
2023-02-09T01:28:14.534Z,12.90
2023-02-09T01:28:35.598Z,12.60
2023-02-09T01:28:56.656Z,12.30
2023-02-09T01:29:17.783Z,12.50
2023-02-09T01:29:38.809Z,12.30
2023-02-09T01:29:59.879Z,12.50
2023-02-09T01:30:20.929Z,13.00
2023-02-09T01:30:42.156Z,13.30
2023-02-09T01:31:03.365Z,13.50
2023-02-09T01:31:24.807Z,13.50
2023-02-09T01:31:46.062Z,12.30
2023-02-09T01:32:07.240Z,12.50
2023-02-09T01:32:28.298Z,13.20
2023-02-09T01:32:49.359Z,14.20
2023-02-09T01:33:10.432Z,13.50
2023-02-09T01:33:31.631Z,13.10
2023-02-09T01:33:52.696Z,12.90
2023-02-09T01:34:13.736Z,12.70
2023-02-09T01:34:34.796Z,13.10
2023-02-09T01:34:55.920Z,13.10
2023-02-09T01:35:16.941Z,13.40
2023-02-09T01:35:38.019Z,13.10
2023-02-09T01:35:59.083Z,13.80
2023-02-09T01:36:20.256Z,13.90
2023-02-09T01:36:41.309Z,12.80
2023-02-09T01:37:02.368Z,13.60
2023-02-09T01:37:23.423Z,12.80
2023-02-09T01:37:44.481Z,13.60
2023-02-09T01:38:05.575Z,13.70
2023-02-09T01:38:26.624Z,13.50
2023-02-09T01:38:47.714Z,13.20
2023-02-09T01:39:08.761Z,13.70
2023-02-09T01:39:29.824Z,13.70
2023-02-09T01:39:50.885Z,14.10
2023-02-09T01:40:12.029Z,13.90
2023-02-09T01:40:33.069Z,13.40
2023-02-09T01:40:54.136Z,13.50
2023-02-09T01:41:15.190Z,14.00
2023-02-09T01:41:36.295Z,14.00
2023-02-09T01:41:57.327Z,13.40
2023-02-09T01:42:18.402Z,13.20
2023-02-09T01:42:39.465Z,13.20
2023-02-09T01:43:00.542Z,13.70
2023-02-09T01:43:21.608Z,14.20
2023-02-09T01:43:42.668Z,13.70
2023-02-09T01:44:03.751Z,14.70
2023-02-09T01:44:24.781Z,14.50
2023-02-09T01:44:45.861Z,13.80
2023-02-09T01:45:06.922Z,13.40
2023-02-09T01:45:28.061Z,13.80
2023-02-09T01:45:49.176Z,13.10
2023-02-09T01:46:10.278Z,12.80
2023-02-09T01:46:31.428Z,12.90
2023-02-09T01:46:52.575Z,13.50
2023-02-09T01:47:13.783Z,13.50
2023-02-09T01:47:34.861Z,13.70
2023-02-09T01:47:55.910Z,14.30
2023-02-09T01:48:17.079Z,14.00
2023-02-09T01:48:38.105Z,13.50
2023-02-09T01:48:59.180Z,13.70
2023-02-09T01:49:20.246Z,13.90
2023-02-09T01:49:41.297Z,14.40
2023-02-09T01:50:02.362Z,14.40
2023-02-09T01:50:23.434Z,14.30
2023-02-09T01:50:44.938Z,15.00
2023-02-09T01:51:06.101Z,14.60
2023-02-09T01:51:27.155Z,13.70
2023-02-09T01:51:48.211Z,14.10
2023-02-09T01:52:09.301Z,14.40
2023-02-09T01:52:30.516Z,13.90
2023-02-09T01:52:51.616Z,13.40
2023-02-09T01:53:12.668Z,13.40
2023-02-09T01:53:33.734Z,14.60
2023-02-09T01:53:54.804Z,14.60
2023-02-09T01:54:15.885Z,14.20
2023-02-09T01:54:36.920Z,14.80
2023-02-09T01:54:58.028Z,15.30
2023-02-09T01:55:19.067Z,14.30
2023-02-09T01:55:40.158Z,14.00
2023-02-09T01:56:01.221Z,14.30
2023-02-09T01:56:22.271Z,14.60
2023-02-09T01:56:43.464Z,15.10
2023-02-09T01:57:04.489Z,15.50
2023-02-09T01:57:25.567Z,14.80
2023-02-09T01:57:46.794Z,14.60
2023-02-09T01:58:07.856Z,14.20
2023-02-09T01:58:28.916Z,14.70
2023-02-09T01:58:50.093Z,14.40
2023-02-09T01:59:11.135Z,15.20
2023-02-09T01:59:32.195Z,14.90
2023-02-09T01:59:53.244Z,15.20
2023-02-09T02:00:14.323Z,15.50
2023-02-09T02:00:35.378Z,15.90
2023-02-09T02:00:57.965Z,15.70
2023-02-09T02:01:20.669Z,16.60
2023-02-09T02:01:41.830Z,15.70
2023-02-09T02:02:02.882Z,15.70
2023-02-09T02:02:23.989Z,15.10
2023-02-09T02:02:45.121Z,15.10
2023-02-09T02:03:06.339Z,15.10
2023-02-09T02:03:27.400Z,14.10
2023-02-09T02:03:48.539Z,14.80
2023-02-09T02:04:09.589Z,14.30
2023-02-09T02:04:30.667Z,14.20
2023-02-09T02:04:51.704Z,14.70
2023-02-09T02:05:12.756Z,14.60
2023-02-09T02:05:33.891Z,14.40
2023-02-09T02:05:54.913Z,15.00
2023-02-09T02:06:15.984Z,15.30
2023-02-09T02:06:37.048Z,15.20
2023-02-09T02:06:58.181Z,15.10
2023-02-09T02:07:19.235Z,14.50
2023-02-09T02:07:40.298Z,14.70
2023-02-09T02:08:01.377Z,14.70
2023-02-09T02:08:22.521Z,14.20
2023-02-09T02:08:43.563Z,13.90
2023-02-09T02:09:04.653Z,14.20
2023-02-09T02:09:25.688Z,15.00
2023-02-09T02:09:46.749Z,14.10
2023-02-09T02:10:07.812Z,13.70
2023-02-09T02:10:28.866Z,13.80
2023-02-09T02:10:49.957Z,13.60
2023-02-09T02:11:11.012Z,14.60
2023-02-09T02:11:32.078Z,15.20
2023-02-09T02:11:53.134Z,15.20
2023-02-09T02:12:14.201Z,15.30
2023-02-09T02:12:35.248Z,14.80
2023-02-09T02:12:56.321Z,15.40
2023-02-09T02:13:17.373Z,15.50
2023-02-09T02:13:38.585Z,14.70
2023-02-09T02:13:59.800Z,14.30
2023-02-09T02:14:20.825Z,14.20
2023-02-09T02:14:41.888Z,14.20
2023-02-09T02:15:02.960Z,14.90
2023-02-09T02:15:24.004Z,15.10
2023-02-09T02:15:45.099Z,14.40
2023-02-09T02:16:06.169Z,14.50
2023-02-09T02:16:27.191Z,13.90
2023-02-09T02:16:48.282Z,14.10
2023-02-09T02:17:09.352Z,14.60
2023-02-09T02:17:30.376Z,14.40
2023-02-09T02:17:51.457Z,14.50
2023-02-09T02:18:12.528Z,15.30
2023-02-09T02:18:33.590Z,14.70
2023-02-09T02:18:54.682Z,15.00
2023-02-09T02:19:15.734Z,14.80
2023-02-09T02:19:36.800Z,15.30
2023-02-09T02:19:57.907Z,15.30
2023-02-09T02:20:18.942Z,15.50
2023-02-09T02:20:40.064Z,14.80
2023-02-09T02:21:01.120Z,15.60
2023-02-09T02:21:22.162Z,15.80
2023-02-09T02:21:43.219Z,15.10
2023-02-09T02:22:04.288Z,14.80
2023-02-09T02:22:25.354Z,14.60
2023-02-09T02:22:46.444Z,14.70
2023-02-09T02:23:07.521Z,15.60
2023-02-09T02:23:28.559Z,15.40
2023-02-09T02:23:49.645Z,15.60
2023-02-09T02:24:10.905Z,15.00
2023-02-09T02:24:31.947Z,15.40
2023-02-09T02:24:52.986Z,15.80
2023-02-09T02:25:14.065Z,15.60
2023-02-09T02:25:35.125Z,14.80
2023-02-09T02:25:56.171Z,14.70
2023-02-09T02:26:17.231Z,15.30
2023-02-09T02:26:38.288Z,15.60
2023-02-09T02:26:59.346Z,15.40
2023-02-09T02:27:20.441Z,16.60
2023-02-09T02:27:41.494Z,15.30
2023-02-09T02:28:02.562Z,15.40
2023-02-09T02:28:23.764Z,16.00
2023-02-09T02:28:44.829Z,15.30
2023-02-09T02:29:05.901Z,16.30
2023-02-09T02:29:26.999Z,16.30
2023-02-09T02:29:48.027Z,15.50
2023-02-09T02:30:09.104Z,16.10
2023-02-09T02:30:30.186Z,15.70
2023-02-09T02:30:51.488Z,15.40
2023-02-09T02:31:12.621Z,15.10
2023-02-09T02:31:33.780Z,15.60
2023-02-09T02:31:54.858Z,15.80
2023-02-09T02:32:15.928Z,15.60
2023-02-09T02:32:36.987Z,14.70
2023-02-09T02:32:58.039Z,15.40
2023-02-09T02:33:19.091Z,16.00
2023-02-09T02:33:40.167Z,16.60
2023-02-09T02:34:01.228Z,15.40
2023-02-09T02:34:22.328Z,15.50
2023-02-09T02:34:43.391Z,15.20
2023-02-09T02:35:04.468Z,15.90
2023-02-09T02:35:25.528Z,16.10
2023-02-09T02:35:46.575Z,16.50
2023-02-09T02:36:07.656Z,15.60
2023-02-09T02:36:28.713Z,16.10
2023-02-09T02:36:49.768Z,16.80
2023-02-09T02:37:10.831Z,15.70
2023-02-09T02:37:31.886Z,15.50
2023-02-09T02:37:52.945Z,15.80
2023-02-09T02:38:14.004Z,15.70
2023-02-09T02:38:35.111Z,16.20
2023-02-09T02:38:56.156Z,15.70
2023-02-09T02:39:17.227Z,15.20
2023-02-09T02:39:38.266Z,15.50
2023-02-09T02:39:59.508Z,15.60
2023-02-09T02:40:20.568Z,16.60
2023-02-09T02:40:41.626Z,16.70
2023-02-09T02:41:02.701Z,15.90
2023-02-09T02:41:23.738Z,16.20
2023-02-09T02:41:44.800Z,16.60
2023-02-09T02:42:05.851Z,16.30
2023-02-09T02:42:26.994Z,16.50
2023-02-09T02:42:48.041Z,16.50
2023-02-09T02:43:09.078Z,16.20
2023-02-09T02:43:30.139Z,16.20
2023-02-09T02:43:51.200Z,15.90
2023-02-09T02:44:12.259Z,16.00
2023-02-09T02:44:33.326Z,15.70
2023-02-09T02:44:54.391Z,15.30
2023-02-09T02:45:15.498Z,16.20
2023-02-09T02:45:36.535Z,16.20
2023-02-09T02:45:57.679Z,16.30
2023-02-09T02:46:18.766Z,16.90
2023-02-09T02:46:39.929Z,16.80
2023-02-09T02:47:01.051Z,15.90
2023-02-09T02:47:22.126Z,16.60
2023-02-09T02:47:43.190Z,15.90
2023-02-09T02:48:04.246Z,15.80
2023-02-09T02:48:25.319Z,15.60
2023-02-09T02:48:46.384Z,16.20
2023-02-09T02:49:07.458Z,16.60
2023-02-09T02:49:28.591Z,16.40
2023-02-09T02:49:49.636Z,16.90
2023-02-09T02:50:10.687Z,17.00
2023-02-09T02:50:31.773Z,17.20
2023-02-09T02:50:52.926Z,17.80
2023-02-09T02:51:14.024Z,18.00
2023-02-09T02:51:35.048Z,18.10
2023-02-09T02:51:56.109Z,17.70
2023-02-09T02:52:17.193Z,16.70
2023-02-09T02:52:38.261Z,17.00
2023-02-09T02:52:59.305Z,17.30
2023-02-09T02:53:20.387Z,17.30
2023-02-09T02:53:41.419Z,17.70
2023-02-09T02:54:02.480Z,18.20
2023-02-09T02:54:23.561Z,17.50
2023-02-09T02:54:44.593Z,17.50
2023-02-09T02:55:05.669Z,17.70
2023-02-09T02:55:26.734Z,17.60
2023-02-09T02:55:47.971Z,17.70
2023-02-09T02:56:09.041Z,17.00
2023-02-09T02:56:30.115Z,17.50
2023-02-09T02:56:51.177Z,18.40
2023-02-09T02:57:12.263Z,18.60
2023-02-09T02:57:33.311Z,17.90
2023-02-09T02:57:54.461Z,17.80
2023-02-09T02:58:15.500Z,18.20
2023-02-09T02:58:36.543Z,17.80
2023-02-09T02:58:57.628Z,18.50
2023-02-09T02:59:18.703Z,18.30
2023-02-09T02:59:39.751Z,18.10
2023-02-09T03:00:00.875Z,17.50
2023-02-09T03:00:21.900Z,17.50
2023-02-09T03:00:43.405Z,17.60
2023-02-09T03:01:04.758Z,17.70
2023-02-09T03:01:25.865Z,17.70
2023-02-09T03:01:46.973Z,17.30
2023-02-09T03:02:08.045Z,18.00
2023-02-09T03:02:29.070Z,18.10
2023-02-09T03:02:50.155Z,17.30
2023-02-09T03:03:11.219Z,17.80
2023-02-09T03:03:32.257Z,16.80
2023-02-09T03:03:53.378Z,16.20
2023-02-09T03:04:14.445Z,17.00
2023-02-09T03:04:35.478Z,17.60
2023-02-09T03:04:56.601Z,16.70
2023-02-09T03:05:17.738Z,16.80
2023-02-09T03:05:38.971Z,17.60
2023-02-09T03:06:00.035Z,17.90
2023-02-09T03:06:21.105Z,17.60
2023-02-09T03:06:42.171Z,16.50
2023-02-09T03:07:03.224Z,16.70
2023-02-09T03:07:24.332Z,16.70
2023-02-09T03:07:45.370Z,16.70
2023-02-09T03:08:06.447Z,16.10
2023-02-09T03:08:27.495Z,16.50
2023-02-09T03:08:48.592Z,16.30
2023-02-09T03:09:09.633Z,16.80
2023-02-09T03:09:30.707Z,16.80
2023-02-09T03:09:51.745Z,16.20
2023-02-09T03:10:12.823Z,16.40
2023-02-09T03:10:33.879Z,16.50
2023-02-09T03:10:54.956Z,16.50
2023-02-09T03:11:16.018Z,15.60
2023-02-09T03:11:37.094Z,16.80
2023-02-09T03:11:58.175Z,16.20
2023-02-09T03:12:19.244Z,16.30
2023-02-09T03:12:40.290Z,16.60
2023-02-09T03:13:01.362Z,17.00
2023-02-09T03:13:22.441Z,15.90
2023-02-09T03:13:43.513Z,15.80
2023-02-09T03:14:04.549Z,16.30
2023-02-09T03:14:25.611Z,16.20
2023-02-09T03:19:27.123Z,14.80
2023-02-09T03:19:48.178Z,17.00
2023-02-09T03:20:09.234Z,15.70
2023-02-09T03:20:30.302Z,15.70
2023-02-09T03:20:51.358Z,16.50
2023-02-09T03:21:12.443Z,16.10
2023-02-09T03:21:33.492Z,16.10
2023-02-09T03:21:54.557Z,16.40
2023-02-09T03:22:15.775Z,16.50
2023-02-09T03:22:36.938Z,16.30
2023-02-09T03:22:57.978Z,15.90
2023-02-09T03:23:19.069Z,15.60
2023-02-09T03:23:40.129Z,15.90
2023-02-09T03:24:01.188Z,16.10
2023-02-09T03:24:22.234Z,15.90
2023-02-09T03:24:43.361Z,16.00
2023-02-09T03:25:04.403Z,16.10
2023-02-09T03:25:25.469Z,15.90
2023-02-09T03:25:46.534Z,15.90
2023-02-09T03:26:07.614Z,16.20
2023-02-09T03:26:28.669Z,15.80
2023-02-09T03:26:49.717Z,15.50
2023-02-09T03:27:10.860Z,16.00
2023-02-09T03:27:31.952Z,15.70
2023-02-09T03:27:53.042Z,16.00
2023-02-09T03:28:14.135Z,16.30
2023-02-09T03:28:35.217Z,15.50
2023-02-09T03:28:56.295Z,15.70
2023-02-09T03:29:17.336Z,16.20
2023-02-09T03:29:38.439Z,16.50
2023-02-09T03:29:59.467Z,15.40
2023-02-09T03:30:20.519Z,15.60
2023-02-09T03:30:41.629Z,16.20
2023-02-09T03:31:02.834Z,15.40
2023-02-09T03:31:24.054Z,15.50
2023-02-09T03:31:45.209Z,16.30
2023-02-09T03:32:06.273Z,16.30
2023-02-09T03:32:27.311Z,16.20
2023-02-09T03:32:48.556Z,15.50
2023-02-09T03:33:10.658Z,15.30
2023-02-09T03:33:31.716Z,15.90
2023-02-09T03:33:52.811Z,16.30
2023-02-09T03:34:13.851Z,15.70
2023-02-09T03:34:34.992Z,15.90
2023-02-09T03:34:56.022Z,15.50
2023-02-09T03:35:17.076Z,16.30
2023-02-09T03:35:38.132Z,16.10
2023-02-09T03:35:59.229Z,15.10
2023-02-09T03:36:20.307Z,15.10
2023-02-09T03:36:41.337Z,14.60
2023-02-09T03:37:02.420Z,14.40
2023-02-09T03:37:23.455Z,14.50
2023-02-09T03:37:44.516Z,14.40
2023-02-09T03:38:05.737Z,14.90
2023-02-09T03:38:26.882Z,14.80
2023-02-09T03:38:47.913Z,14.80
2023-02-09T03:39:08.975Z,15.10
2023-02-09T03:39:30.035Z,15.20
2023-02-09T03:39:51.105Z,15.20
2023-02-09T03:40:12.155Z,15.90
2023-02-09T03:40:33.213Z,15.10
2023-02-09T03:40:54.310Z,15.20
2023-02-09T03:41:15.348Z,15.80
2023-02-09T03:41:36.408Z,16.10
2023-02-09T03:41:57.486Z,16.20
2023-02-09T03:42:18.546Z,15.80
2023-02-09T03:42:39.616Z,15.40
2023-02-09T03:43:00.666Z,15.50
2023-02-09T03:43:21.749Z,15.00
2023-02-09T03:43:42.816Z,14.90
2023-02-09T03:44:03.871Z,16.30
2023-02-09T03:44:24.934Z,15.60
2023-02-09T03:44:45.986Z,15.20
2023-02-09T03:45:07.037Z,15.70
2023-02-09T03:45:28.117Z,15.50
2023-02-09T03:45:49.220Z,15.70
2023-02-09T03:46:10.301Z,16.30
2023-02-09T03:46:31.382Z,16.10
2023-02-09T03:46:52.486Z,15.40
2023-02-09T03:47:13.602Z,15.70
2023-02-09T03:47:34.645Z,15.50
2023-02-09T03:47:55.759Z,15.10
2023-02-09T03:48:16.800Z,15.10
2023-02-09T03:48:38.051Z,15.30
2023-02-09T03:48:59.113Z,16.00
2023-02-09T03:49:20.179Z,15.80
2023-02-09T03:49:41.236Z,16.40
2023-02-09T03:50:02.294Z,15.70
2023-02-09T03:50:23.359Z,16.00
2023-02-09T03:50:44.865Z,16.10
2023-02-09T03:51:06.093Z,15.70
2023-02-09T03:51:27.149Z,14.80
2023-02-09T03:51:48.241Z,14.70
2023-02-09T03:52:09.292Z,15.40
2023-02-09T03:52:30.339Z,15.90
2023-02-09T03:52:51.509Z,16.60
2023-02-09T03:53:12.540Z,14.80
2023-02-09T03:53:33.590Z,14.70
2023-02-09T03:53:54.813Z,15.20
2023-02-09T03:54:15.883Z,15.20
2023-02-09T03:54:37.020Z,14.90
2023-02-09T03:54:58.114Z,15.70
2023-02-09T03:55:19.145Z,15.20
2023-02-09T03:55:40.233Z,15.20
2023-02-09T03:56:01.288Z,16.00
2023-02-09T03:56:22.349Z,14.80
2023-02-09T03:56:43.419Z,14.90
2023-02-09T03:57:04.463Z,15.60
2023-02-09T03:57:25.559Z,15.60
2023-02-09T03:57:46.733Z,15.20
2023-02-09T03:58:08.024Z,15.20
2023-02-09T03:58:29.092Z,15.00
2023-02-09T03:58:50.164Z,15.30
2023-02-09T03:59:11.274Z,16.00
2023-02-09T03:59:32.318Z,15.20
2023-02-09T03:59:53.393Z,16.00
2023-02-09T04:00:14.447Z,15.40
2023-02-09T04:00:35.590Z,16.00
2023-02-09T04:00:56.655Z,16.50
2023-02-09T04:01:17.793Z,16.70
2023-02-09T04:01:38.827Z,16.50
2023-02-09T04:01:59.890Z,16.20
2023-02-09T04:02:21.018Z,15.50
2023-02-09T04:02:42.110Z,15.20
2023-02-09T04:03:03.147Z,14.30
2023-02-09T04:03:24.218Z,14.60
2023-02-09T04:03:45.293Z,15.30
2023-02-09T04:04:06.352Z,15.30
2023-02-09T04:04:27.462Z,15.80
2023-02-09T04:04:48.588Z,15.80
2023-02-09T04:05:09.864Z,15.60
2023-02-09T04:05:31.018Z,15.50
2023-02-09T04:05:52.075Z,15.10
2023-02-09T04:06:13.148Z,15.90
2023-02-09T04:06:34.199Z,15.90
2023-02-09T04:06:55.263Z,15.50
2023-02-09T04:07:16.339Z,15.30
2023-02-09T04:07:37.399Z,15.60
2023-02-09T04:07:58.458Z,15.90
2023-02-09T04:08:19.552Z,16.20
2023-02-09T04:08:40.620Z,15.30
2023-02-09T04:09:01.685Z,15.40
2023-02-09T04:09:22.767Z,16.70
2023-02-09T04:09:43.982Z,15.30
2023-02-09T04:10:05.084Z,15.20
2023-02-09T04:10:26.141Z,14.30
2023-02-09T04:10:47.459Z,15.50
2023-02-09T04:11:08.581Z,16.00
2023-02-09T04:11:29.657Z,15.50
2023-02-09T04:11:50.710Z,15.50
2023-02-09T04:12:11.786Z,16.30
2023-02-09T04:12:32.864Z,15.10
2023-02-09T04:12:53.908Z,15.60
2023-02-09T04:13:14.974Z,16.10
2023-02-09T04:13:36.030Z,15.60
2023-02-09T04:13:57.100Z,15.50
2023-02-09T04:14:18.164Z,16.20
2023-02-09T04:14:39.228Z,16.60
2023-02-09T04:15:00.454Z,15.80
2023-02-09T04:15:21.524Z,16.00
2023-02-09T04:15:42.571Z,15.80
2023-02-09T04:16:03.672Z,15.80
2023-02-09T04:16:24.881Z,15.90
2023-02-09T04:16:45.931Z,16.50
2023-02-09T04:17:06.984Z,16.90
2023-02-09T04:17:28.058Z,15.80
2023-02-09T04:17:50.822Z,16.30
2023-02-09T04:18:11.947Z,16.40
2023-02-09T04:18:32.980Z,15.20
2023-02-09T04:18:54.039Z,16.10
2023-02-09T04:19:15.109Z,16.60
2023-02-09T04:19:36.202Z,15.60
2023-02-09T04:19:57.238Z,15.90
2023-02-09T04:20:18.363Z,16.20
2023-02-09T04:20:39.420Z,16.20
2023-02-09T04:21:00.488Z,16.40
2023-02-09T04:21:21.554Z,16.30
2023-02-09T04:21:42.606Z,16.00
2023-02-09T04:22:04.700Z,15.50
2023-02-09T04:22:25.717Z,16.20
2023-02-09T04:22:46.785Z,15.80
2023-02-09T04:23:07.964Z,16.50
2023-02-09T04:23:28.977Z,15.90
2023-02-09T04:23:50.046Z,16.50
2023-02-09T04:24:11.113Z,16.40
2023-02-09T04:24:32.272Z,16.30
2023-02-09T04:24:53.293Z,16.40
2023-02-09T04:25:14.388Z,17.00
2023-02-09T04:25:35.465Z,16.10
2023-02-09T04:25:56.499Z,15.30
2023-02-09T04:26:17.576Z,15.70
2023-02-09T04:26:38.646Z,16.00
2023-02-09T04:26:59.709Z,16.00
2023-02-09T04:27:20.760Z,15.80
2023-02-09T04:27:41.843Z,15.70
2023-02-09T04:28:02.933Z,16.00
2023-02-09T04:28:23.991Z,15.40
2023-02-09T04:28:45.058Z,16.10
2023-02-09T04:29:06.164Z,16.20
2023-02-09T04:29:27.216Z,15.40
2023-02-09T04:29:48.278Z,15.90
2023-02-09T04:30:09.340Z,16.40
2023-02-09T04:30:30.437Z,15.70
2023-02-09T04:30:51.569Z,15.30
2023-02-09T04:31:12.731Z,15.60
2023-02-09T04:31:33.874Z,15.90
2023-02-09T04:31:54.957Z,16.30
2023-02-09T04:32:15.995Z,16.40
2023-02-09T04:32:37.081Z,16.30
2023-02-09T04:32:58.124Z,16.60
2023-02-09T04:33:19.189Z,16.20
2023-02-09T04:33:40.239Z,15.60
2023-02-09T04:34:01.320Z,15.30
2023-02-09T04:34:22.388Z,16.40
2023-02-09T04:34:43.551Z,16.10
2023-02-09T04:35:04.569Z,17.30
2023-02-09T04:35:25.639Z,16.60
2023-02-09T04:35:46.699Z,16.20
2023-02-09T04:36:07.777Z,15.60